createdAt,value
2022-07-26T00:00:28.877Z,24.81
2022-07-26T00:02:55.716Z,25.11
2022-07-26T00:05:22.465Z,25.41
2022-07-26T00:07:49.155Z,25.65
2022-07-26T00:10:15.842Z,25.56
2022-07-26T00:12:42.509Z,25.38
2022-07-26T00:15:11.334Z,25.83
2022-07-26T00:17:38.993Z,25.84
2022-07-26T00:20:06.553Z,25.90
2022-07-26T00:22:36.355Z,26.01
2022-07-26T00:25:07.704Z,25.85
2022-07-26T00:27:37.826Z,25.91
2022-07-26T00:30:06.610Z,25.75
2022-07-26T00:32:33.561Z,25.39
2022-07-26T00:35:00.255Z,25.17
2022-07-26T00:37:26.954Z,25.29
2022-07-26T00:39:53.780Z,25.20
2022-07-26T00:42:20.480Z,25.20
2022-07-26T00:44:47.304Z,25.54
2022-07-26T00:47:15.335Z,25.47
2022-07-26T00:49:43.430Z,25.78
2022-07-26T00:52:11.326Z,25.79
2022-07-26T00:54:39.519Z,25.74
2022-07-26T00:57:06.804Z,25.73
2022-07-26T00:59:33.532Z,25.61
2022-07-26T01:02:00.473Z,25.63
2022-07-26T01:04:27.566Z,25.40
2022-07-26T01:06:54.858Z,24.81
2022-07-26T01:09:21.636Z,24.91
2022-07-26T01:11:48.308Z,25.12
2022-07-26T01:14:16.476Z,24.13
2022-07-26T01:16:44.153Z,24.86
2022-07-26T01:19:10.929Z,25.14
2022-07-26T01:21:37.600Z,25.18
2022-07-26T01:24:04.966Z,25.42
2022-07-26T01:26:31.929Z,25.39
2022-07-26T01:28:58.640Z,25.42
2022-07-26T01:31:25.591Z,25.39
2022-07-26T01:33:52.568Z,25.45
2022-07-26T01:36:19.729Z,25.36
2022-07-26T01:38:46.382Z,25.09
2022-07-26T01:41:13.413Z,24.92
2022-07-26T01:43:42.912Z,24.97
2022-07-26T01:46:10.269Z,24.75
2022-07-26T01:48:37.194Z,24.75
2022-07-26T01:51:04.246Z,24.76
2022-07-26T01:53:30.899Z,24.53
2022-07-26T01:55:58.267Z,24.80
2022-07-26T01:58:24.923Z,24.89
2022-07-26T02:00:51.663Z,24.97
2022-07-26T02:03:18.354Z,24.78
2022-07-26T02:05:45.004Z,24.69
2022-07-26T02:08:14.763Z,24.84
2022-07-26T02:11:00.550Z,24.84
2022-07-26T02:13:35.983Z,24.89
2022-07-26T02:16:04.919Z,24.13
2022-07-26T02:18:32.120Z,24.35
2022-07-26T02:21:00.503Z,24.47
2022-07-26T02:23:28.192Z,24.64
2022-07-26T02:25:55.828Z,24.75
2022-07-26T02:28:23.132Z,24.49
2022-07-26T02:30:50.658Z,24.10
2022-07-26T02:33:18.121Z,23.53
2022-07-26T02:35:46.457Z,23.18
2022-07-26T02:38:15.278Z,23.70
2022-07-26T02:40:42.498Z,23.97
2022-07-26T02:43:10.305Z,23.90
2022-07-26T02:45:37.541Z,24.12
2022-07-26T02:48:04.559Z,24.44
2022-07-26T02:50:32.188Z,24.59
2022-07-26T02:52:58.927Z,24.51
2022-07-26T02:55:27.383Z,24.62
2022-07-26T02:57:54.375Z,24.61
2022-07-26T03:00:25.204Z,24.51
2022-07-26T03:02:52.886Z,24.59
2022-07-26T03:05:20.760Z,24.64
2022-07-26T03:07:48.110Z,24.53
2022-07-26T03:10:15.421Z,24.75
2022-07-26T03:12:42.386Z,24.77
2022-07-26T03:15:09.732Z,24.72
2022-07-26T03:17:36.390Z,24.66
2022-07-26T03:20:04.554Z,24.57
2022-07-26T03:22:31.257Z,24.16
2022-07-26T03:24:57.911Z,24.36
2022-07-26T03:27:24.583Z,24.52
2022-07-26T03:29:51.191Z,24.50
2022-07-26T03:32:17.869Z,24.60
2022-07-26T03:34:44.646Z,24.37
2022-07-26T03:37:11.428Z,24.52
2022-07-26T03:39:38.350Z,24.68
2022-07-26T03:42:05.255Z,24.74
2022-07-26T03:44:32.020Z,24.70
2022-07-26T03:46:59.092Z,24.49
2022-07-26T03:49:26.730Z,24.61
2022-07-26T03:51:53.863Z,24.47
2022-07-26T03:54:20.682Z,24.43
2022-07-26T03:56:47.488Z,24.70
2022-07-26T03:59:14.249Z,24.80
2022-07-26T04:01:42.547Z,24.80
2022-07-26T04:04:11.488Z,24.61
2022-07-26T04:06:39.398Z,24.65
2022-07-26T04:09:07.292Z,24.28
2022-07-26T04:11:35.392Z,24.16
2022-07-26T04:14:02.358Z,24.57
2022-07-26T04:16:29.480Z,24.58
2022-07-26T04:18:56.433Z,24.62
2022-07-26T04:21:23.742Z,24.78
2022-07-26T04:23:51.799Z,25.09
2022-07-26T04:26:20.494Z,24.88
2022-07-26T04:28:47.423Z,25.10
2022-07-26T04:31:14.305Z,25.31
2022-07-26T04:33:41.254Z,25.08
2022-07-26T04:36:08.301Z,24.99
2022-07-26T04:38:35.194Z,24.92
2022-07-26T04:41:01.934Z,24.44
2022-07-26T04:43:28.621Z,24.89
2022-07-26T04:45:57.503Z,25.14
2022-07-26T04:48:24.789Z,25.36
2022-07-26T04:50:52.079Z,25.46
2022-07-26T04:53:19.039Z,25.55
2022-07-26T04:55:45.926Z,25.61
2022-07-26T04:58:12.824Z,25.69
2022-07-26T05:03:26.436Z,25.24
2022-07-26T05:05:53.689Z,25.38
2022-07-26T05:08:20.613Z,25.22
2022-07-26T05:10:52.969Z,24.81
2022-07-26T05:13:29.341Z,25.10
2022-07-26T05:15:57.827Z,25.20
2022-07-26T05:18:24.601Z,25.25
2022-07-26T05:20:51.616Z,25.03
2022-07-26T05:23:19.961Z,25.15
2022-07-26T05:25:46.789Z,25.19
2022-07-26T05:28:13.590Z,25.46
2022-07-26T05:30:40.376Z,25.61
2022-07-26T05:33:07.155Z,25.68
2022-07-26T05:35:33.803Z,25.11
2022-07-26T05:38:00.481Z,25.02
2022-07-26T05:40:27.575Z,25.45
2022-07-26T05:42:54.335Z,25.70
2022-07-26T05:45:21.021Z,26.15
2022-07-26T05:47:50.560Z,26.42
2022-07-26T05:50:17.660Z,26.71
2022-07-26T05:52:44.353Z,26.90
2022-07-26T05:55:11.057Z,26.78
2022-07-26T05:57:41.578Z,26.30
2022-07-26T06:00:09.854Z,26.30
2022-07-26T06:02:36.733Z,26.31
2022-07-26T06:05:03.707Z,26.07
2022-07-26T06:07:30.353Z,26.63
2022-07-26T06:09:57.181Z,26.69
2022-07-26T06:12:23.939Z,26.41
2022-07-26T06:14:50.731Z,26.38
2022-07-26T06:17:17.566Z,27.08
2022-07-26T06:19:47.609Z,27.14
2022-07-26T06:22:14.935Z,26.68
2022-07-26T06:24:41.697Z,26.89
2022-07-26T06:27:08.524Z,26.51
2022-07-26T06:29:35.287Z,26.22
2022-07-26T06:32:02.221Z,27.25
2022-07-26T06:34:29.412Z,27.45
2022-07-26T06:36:56.412Z,27.17
2022-07-26T06:39:23.175Z,27.12
2022-07-26T06:41:49.884Z,26.51
2022-07-26T06:44:16.656Z,27.10
2022-07-26T06:46:43.438Z,27.19
2022-07-26T06:49:10.122Z,27.40
2022-07-26T06:51:36.932Z,27.67
2022-07-26T06:54:05.571Z,27.46
2022-07-26T06:56:33.027Z,27.65
2022-07-26T06:58:59.891Z,26.94
2022-07-26T07:01:58.721Z,26.78
2022-07-26T07:04:13.290Z,27.19
2022-07-26T07:06:40.079Z,26.95
2022-07-26T07:09:07.782Z,26.81
2022-07-26T07:11:35.759Z,27.27
2022-07-26T07:14:03.485Z,27.03
2022-07-26T07:16:30.467Z,27.45
2022-07-26T07:18:57.420Z,27.65
2022-07-26T07:21:24.099Z,27.35
2022-07-26T07:23:50.744Z,27.79
2022-07-26T07:26:17.609Z,27.72
2022-07-26T07:28:44.365Z,27.46
2022-07-26T07:31:11.858Z,27.79
2022-07-26T07:33:52.907Z,27.64
2022-07-26T07:36:21.156Z,27.94
2022-07-26T07:38:48.784Z,27.60
2022-07-26T07:41:16.109Z,27.29
2022-07-26T07:43:42.777Z,27.93
2022-07-26T07:46:09.511Z,28.14
2022-07-26T07:48:38.707Z,27.33
2022-07-26T07:51:08.451Z,27.55
2022-07-26T07:53:35.292Z,27.80
2022-07-26T07:56:02.459Z,28.52
2022-07-26T07:58:29.168Z,28.62
2022-07-26T08:00:55.958Z,28.55
2022-07-26T08:03:22.676Z,28.37
2022-07-26T08:05:50.851Z,28.15
2022-07-26T08:08:19.412Z,28.02
2022-07-26T08:10:51.730Z,28.54
2022-07-26T08:13:21.128Z,28.06
2022-07-26T08:15:49.533Z,28.44
2022-07-26T08:18:16.324Z,28.95
2022-07-26T08:20:43.567Z,28.95
2022-07-26T08:23:10.540Z,29.22
2022-07-26T08:25:42.661Z,28.82
2022-07-26T08:28:37.542Z,28.48
2022-07-26T08:31:03.933Z,29.14
2022-07-26T08:33:30.809Z,29.52
2022-07-26T08:35:58.674Z,29.22
2022-07-26T08:38:25.691Z,29.26
2022-07-26T08:40:52.568Z,28.57
2022-07-26T08:43:19.243Z,29.58
2022-07-26T08:45:47.346Z,29.23
2022-07-26T08:48:17.679Z,29.53
2022-07-26T08:50:44.890Z,29.13
2022-07-26T08:53:13.228Z,29.22
2022-07-26T08:56:04.726Z,29.23
2022-07-26T08:58:28.557Z,29.60
2022-07-26T09:01:09.602Z,29.35
2022-07-26T09:03:38.060Z,29.54
2022-07-26T09:06:16.836Z,29.60
2022-07-26T09:08:45.786Z,29.93
2022-07-26T09:11:32.242Z,30.04
2022-07-26T09:14:00.944Z,30.41
2022-07-26T09:16:29.351Z,30.15
2022-07-26T09:19:15.776Z,30.32
2022-07-26T09:21:42.527Z,30.69
2022-07-26T09:24:10.521Z,30.42
2022-07-26T09:26:37.271Z,30.79
2022-07-26T09:29:08.295Z,30.76
2022-07-26T09:31:36.893Z,31.17
2022-07-26T09:34:04.914Z,31.43
2022-07-26T09:36:32.034Z,30.98
2022-07-26T09:39:04.562Z,31.16
2022-07-26T09:41:34.635Z,31.37
2022-07-26T09:44:04.849Z,31.19
2022-07-26T09:46:33.079Z,31.41
2022-07-26T09:49:17.265Z,31.13
2022-07-26T09:51:46.898Z,31.37
2022-07-26T09:54:30.512Z,31.17
2022-07-26T09:56:58.097Z,31.63
2022-07-26T09:59:26.949Z,31.55
2022-07-26T10:01:57.454Z,30.30
2022-07-26T10:04:25.069Z,30.49
2022-07-26T10:06:52.531Z,30.95
2022-07-26T10:09:19.872Z,31.40
2022-07-26T10:11:56.744Z,31.14
2022-07-26T10:14:37.436Z,31.70
2022-07-26T10:17:31.556Z,31.56
2022-07-26T10:20:03.744Z,31.61
2022-07-26T10:22:42.772Z,31.56
2022-07-26T10:25:38.525Z,31.60
2022-07-26T10:28:11.834Z,31.74
2022-07-26T10:30:39.131Z,31.98
2022-07-26T10:33:15.933Z,32.01
2022-07-26T10:35:43.744Z,32.24
2022-07-26T10:38:25.700Z,31.85
2022-07-26T10:40:59.437Z,31.61
2022-07-26T10:43:42.938Z,32.18
2022-07-26T10:46:16.288Z,31.91
2022-07-26T10:49:00.105Z,31.95
2022-07-26T10:51:32.615Z,32.28
2022-07-26T10:54:10.938Z,32.16
2022-07-26T10:56:38.724Z,31.43
2022-07-26T10:59:06.292Z,31.92
2022-07-26T11:01:43.677Z,31.67
2022-07-26T11:08:11.604Z,31.92
2022-07-26T11:10:44.341Z,32.21
2022-07-26T11:13:15.332Z,32.02
2022-07-26T11:15:54.462Z,31.16
2022-07-26T11:18:25.176Z,31.57
2022-07-26T11:20:54.662Z,31.55
2022-07-26T11:23:25.255Z,31.49
2022-07-26T11:26:17.436Z,32.16
2022-07-26T11:28:58.723Z,31.71
2022-07-26T11:31:49.699Z,32.15
2022-07-26T11:34:23.354Z,31.65
2022-07-26T11:36:53.132Z,32.16
2022-07-26T11:39:32.067Z,32.55
2022-07-26T11:42:04.943Z,32.55
2022-07-26T11:44:32.381Z,32.33
2022-07-26T11:46:59.616Z,32.66
2022-07-26T11:49:52.802Z,32.46
2022-07-26T11:52:24.401Z,32.50
2022-07-26T11:54:53.498Z,32.69
2022-07-26T11:57:20.285Z,33.03
2022-07-26T11:59:48.819Z,33.28
2022-07-26T12:02:22.218Z,33.41
2022-07-26T12:04:50.175Z,33.20
2022-07-26T12:07:21.468Z,33.01
2022-07-26T12:09:55.069Z,32.77
2022-07-26T12:12:31.827Z,32.48
2022-07-26T12:15:00.819Z,32.84
2022-07-26T12:17:34.557Z,32.84
2022-07-26T12:20:18.471Z,33.03
2022-07-26T12:23:00.461Z,33.13
2022-07-26T12:25:29.388Z,33.50
2022-07-26T12:27:56.476Z,33.32
2022-07-26T12:30:23.878Z,33.34
2022-07-26T12:32:54.855Z,33.32
2022-07-26T12:35:35.683Z,33.50
2022-07-26T12:38:05.950Z,33.45
2022-07-26T12:40:41.653Z,33.74
2022-07-26T12:43:10.147Z,33.80
2022-07-26T12:45:38.168Z,33.31
2022-07-26T12:48:12.662Z,33.75
2022-07-26T12:50:39.432Z,33.65
2022-07-26T12:53:08.249Z,33.63
2022-07-26T12:55:36.454Z,33.65
2022-07-26T12:58:03.303Z,33.46
2022-07-26T13:00:30.285Z,33.58
2022-07-26T13:02:57.804Z,33.63
2022-07-26T13:05:24.806Z,33.80
2022-07-26T13:07:55.579Z,33.53
2022-07-26T13:10:37.960Z,33.80
2022-07-26T13:13:05.174Z,33.63
2022-07-26T13:15:36.381Z,33.40
2022-07-26T13:18:05.553Z,33.91
2022-07-26T13:20:32.754Z,33.82
2022-07-26T13:22:59.557Z,33.33
2022-07-26T13:25:29.500Z,33.78
2022-07-26T13:28:10.082Z,33.57
2022-07-26T13:30:39.179Z,33.75
2022-07-26T13:33:06.880Z,33.60
2022-07-26T13:35:33.702Z,33.22
2022-07-26T13:38:00.581Z,33.45
2022-07-26T13:40:31.495Z,33.23
2022-07-26T13:42:58.969Z,33.21
2022-07-26T13:45:28.849Z,33.15
2022-07-26T13:51:59.017Z,33.76
2022-07-26T13:54:28.543Z,34.22
2022-07-26T13:56:56.360Z,33.51
2022-07-26T13:59:23.241Z,33.02
2022-07-26T14:01:50.259Z,33.60
2022-07-26T14:04:17.452Z,33.62
2022-07-26T14:06:44.459Z,34.34
2022-07-26T14:09:11.544Z,34.27
2022-07-26T14:11:39.029Z,33.73
2022-07-26T14:14:06.136Z,33.54
2022-07-26T14:16:33.881Z,33.94
2022-07-26T14:19:01.130Z,34.41
2022-07-26T14:21:29.383Z,33.65
2022-07-26T14:24:10.658Z,34.23
2022-07-26T14:26:37.599Z,34.15
2022-07-26T14:29:04.377Z,34.40
2022-07-26T14:31:32.551Z,34.51
2022-07-26T14:33:59.413Z,34.40
2022-07-26T14:36:26.172Z,34.86
2022-07-26T14:38:52.875Z,34.52
2022-07-26T14:41:19.638Z,34.21
2022-07-26T14:43:48.886Z,34.13
2022-07-26T14:46:20.437Z,34.18
2022-07-26T14:48:54.374Z,33.89
2022-07-26T14:51:21.856Z,34.54
2022-07-26T14:53:48.895Z,35.01
2022-07-26T14:56:15.557Z,34.93
2022-07-26T14:58:42.230Z,35.22
2022-07-26T15:01:09.156Z,35.02
2022-07-26T15:03:35.970Z,34.60
2022-07-26T15:06:02.683Z,34.78
2022-07-26T15:08:29.374Z,35.20
2022-07-26T15:10:56.162Z,34.92
2022-07-26T15:13:22.872Z,34.81
2022-07-26T15:15:49.617Z,34.76
2022-07-26T15:18:16.326Z,34.80
2022-07-26T15:20:43.064Z,34.83
2022-07-26T15:23:11.686Z,35.11
2022-07-26T15:25:38.762Z,35.14
2022-07-26T15:28:05.689Z,34.90
2022-07-26T15:30:33.613Z,34.96
2022-07-26T15:33:02.083Z,34.44
2022-07-26T15:35:30.001Z,33.94
2022-07-26T15:37:57.833Z,34.01
2022-07-26T15:40:24.949Z,33.75
2022-07-26T15:42:53.094Z,33.63
2022-07-26T15:45:20.977Z,34.00
2022-07-26T15:47:56.057Z,33.72
2022-07-26T15:50:26.470Z,33.96
2022-07-26T15:52:53.298Z,33.95
2022-07-26T15:55:20.568Z,34.02
2022-07-26T15:57:47.378Z,34.30
2022-07-26T16:00:15.546Z,34.47
2022-07-26T16:02:42.478Z,34.42
2022-07-26T16:05:10.805Z,34.48
2022-07-26T16:07:41.420Z,34.42
2022-07-26T16:10:10.300Z,34.30
2022-07-26T16:12:37.012Z,34.33
2022-07-26T16:15:04.949Z,34.33
2022-07-26T16:17:31.636Z,34.12
2022-07-26T16:19:58.524Z,34.00
2022-07-26T16:22:25.273Z,33.93
2022-07-26T16:24:51.975Z,33.91
2022-07-26T16:27:18.822Z,33.73
2022-07-26T16:29:50.235Z,33.69
2022-07-26T16:32:20.649Z,33.66
2022-07-26T16:34:47.293Z,33.62
2022-07-26T16:37:13.938Z,33.45
2022-07-26T16:39:40.574Z,33.48
2022-07-26T16:42:07.622Z,33.38
2022-07-26T16:44:36.333Z,33.21
2022-07-26T16:47:03.985Z,33.01
2022-07-26T16:49:30.867Z,33.05
2022-07-26T16:51:57.727Z,32.99
2022-07-26T16:54:24.834Z,32.93
2022-07-26T16:56:51.507Z,32.96
2022-07-26T16:59:18.455Z,32.81
2022-07-26T17:01:45.487Z,32.60
2022-07-26T17:04:12.291Z,32.45
2022-07-26T17:06:41.279Z,32.56
2022-07-26T17:09:15.795Z,32.46
2022-07-26T17:11:42.985Z,32.46
2022-07-26T17:14:09.659Z,32.45
2022-07-26T17:16:36.971Z,32.22
2022-07-26T17:19:03.702Z,32.20
2022-07-26T17:21:30.534Z,32.21
2022-07-26T17:23:57.197Z,32.13
2022-07-26T17:26:24.373Z,32.07
2022-07-26T17:28:51.024Z,32.05
2022-07-26T17:31:17.692Z,32.02
2022-07-26T17:33:44.352Z,31.95
2022-07-26T17:36:28.187Z,31.83
2022-07-26T17:38:56.073Z,31.81
2022-07-26T17:41:24.235Z,31.62
2022-07-26T17:43:59.931Z,31.66
2022-07-26T17:46:26.640Z,31.56
2022-07-26T17:48:53.403Z,31.45
2022-07-26T17:51:20.269Z,31.51
2022-07-26T17:53:52.728Z,31.26
2022-07-26T17:56:23.138Z,31.23
2022-07-26T17:58:49.853Z,31.10
2022-07-26T18:01:16.660Z,31.14
2022-07-26T18:03:43.444Z,31.06
2022-07-26T18:06:10.642Z,30.91
2022-07-26T18:08:37.525Z,30.80
2022-07-26T18:11:05.363Z,30.78
2022-07-26T18:13:32.007Z,30.62
2022-07-26T18:16:02.830Z,30.68
2022-07-26T18:18:32.428Z,30.65
2022-07-26T18:20:59.349Z,30.56
2022-07-26T18:23:26.019Z,30.55
2022-07-26T18:25:53.876Z,30.59
2022-07-26T18:28:20.646Z,30.61
2022-07-26T18:30:47.331Z,30.63
2022-07-26T18:33:14.536Z,30.61
2022-07-26T18:35:41.899Z,30.51
2022-07-26T18:38:09.133Z,29.32
2022-07-26T18:40:36.416Z,28.95
2022-07-26T18:43:03.348Z,29.60
2022-07-26T18:45:30.036Z,29.62
2022-07-26T18:47:56.704Z,29.82
2022-07-26T18:50:26.653Z,29.87
2022-07-26T18:52:57.870Z,30.04
2022-07-26T18:55:24.817Z,29.97
2022-07-26T18:57:51.730Z,29.93
2022-07-26T19:00:21.433Z,30.03
2022-07-26T19:02:48.507Z,30.08
2022-07-26T19:05:16.333Z,30.07
2022-07-26T19:07:43.561Z,30.15
2022-07-26T19:10:10.983Z,30.23
2022-07-26T19:12:37.782Z,30.28
2022-07-26T19:15:08.560Z,30.13
2022-07-26T19:17:38.176Z,30.08
2022-07-26T19:20:06.813Z,30.02
2022-07-26T19:22:33.733Z,30.07
2022-07-26T19:25:00.507Z,29.98
2022-07-26T19:27:28.006Z,30.01
2022-07-26T19:29:56.991Z,30.04
2022-07-26T19:32:24.397Z,30.08
2022-07-26T19:34:51.353Z,30.03
2022-07-26T19:37:21.382Z,30.05
2022-07-26T19:39:49.676Z,29.64
2022-07-26T19:42:17.959Z,29.60
2022-07-26T19:44:45.852Z,29.56
2022-07-26T19:47:13.660Z,29.43
2022-07-26T19:49:43.524Z,29.29
2022-07-26T19:52:11.865Z,29.48
2022-07-26T19:54:39.051Z,29.51
2022-07-26T19:57:07.359Z,29.46
2022-07-26T19:59:34.373Z,29.44
2022-07-26T20:02:02.130Z,29.38
2022-07-26T20:04:28.999Z,29.42
2022-07-26T20:06:56.490Z,29.41
2022-07-26T20:09:23.233Z,29.53
2022-07-26T20:11:51.112Z,29.41
2022-07-26T20:14:23.343Z,29.34
2022-07-26T20:16:55.811Z,29.38
2022-07-26T20:19:24.712Z,29.36
2022-07-26T20:21:51.430Z,29.31
2022-07-26T20:24:19.055Z,29.28
2022-07-26T20:26:46.047Z,29.24
2022-07-26T20:29:13.099Z,29.20
2022-07-26T20:31:39.983Z,29.16
2022-07-26T20:34:06.696Z,29.11
2022-07-26T20:36:33.420Z,29.05
2022-07-26T20:39:03.096Z,28.93
2022-07-26T20:41:34.165Z,28.84
2022-07-26T20:44:01.077Z,28.72
2022-07-26T20:46:28.177Z,28.60
2022-07-26T20:48:55.101Z,28.71
2022-07-26T20:51:21.971Z,28.52
2022-07-26T20:53:48.668Z,28.60
2022-07-26T20:56:15.453Z,28.62
2022-07-26T20:58:42.148Z,28.61
2022-07-26T21:01:09.300Z,28.66
2022-07-26T21:03:36.181Z,28.93
2022-07-26T21:06:02.942Z,28.82
2022-07-26T21:08:29.737Z,28.88
2022-07-26T21:10:56.370Z,28.81
2022-07-26T21:13:23.025Z,28.70
2022-07-26T21:15:51.348Z,28.72
2022-07-26T21:18:18.302Z,28.60
2022-07-26T21:20:45.018Z,28.70
2022-07-26T21:23:17.176Z,28.62
2022-07-26T21:25:44.289Z,28.66
2022-07-26T21:28:11.063Z,28.70
2022-07-26T21:30:37.957Z,28.76
2022-07-26T21:33:05.395Z,28.77
2022-07-26T21:35:34.893Z,28.82
2022-07-26T21:38:01.706Z,28.83
2022-07-26T21:40:28.489Z,28.88
2022-07-26T21:42:55.176Z,28.42
2022-07-26T21:45:22.037Z,28.32
2022-07-26T21:47:48.917Z,28.30
2022-07-26T21:50:15.625Z,28.30
2022-07-26T21:52:42.283Z,28.29
2022-07-26T21:55:09.275Z,28.39
2022-07-26T21:57:36.016Z,28.46
2022-07-26T22:00:04.016Z,28.41
2022-07-26T22:02:30.780Z,28.18
2022-07-26T22:04:57.679Z,28.18
2022-07-26T22:07:28.695Z,28.17
2022-07-26T22:09:55.488Z,28.06
2022-07-26T22:12:22.259Z,28.00
2022-07-26T22:14:48.915Z,28.02
2022-07-26T22:17:15.550Z,28.12
2022-07-26T22:19:42.180Z,28.10
2022-07-26T22:22:08.947Z,28.09
2022-07-26T22:24:35.654Z,27.97
2022-07-26T22:27:02.328Z,27.91
2022-07-26T22:29:39.943Z,27.84
2022-07-26T22:32:07.053Z,27.86
2022-07-26T22:34:33.860Z,27.95
2022-07-26T22:37:00.589Z,27.94
2022-07-26T22:39:27.614Z,27.96
2022-07-26T22:42:14.209Z,27.90
2022-07-26T22:44:41.080Z,27.85
2022-07-26T22:47:07.769Z,27.74
2022-07-26T22:49:34.527Z,27.73
2022-07-26T22:52:01.274Z,27.80
2022-07-26T22:54:27.933Z,27.63
2022-07-26T22:56:54.620Z,27.45
2022-07-26T22:59:22.587Z,27.51
2022-07-26T23:01:49.303Z,27.51
2022-07-26T23:04:16.213Z,27.37
2022-07-26T23:06:43.104Z,27.38
2022-07-26T23:09:11.848Z,27.58
2022-07-26T23:11:39.014Z,27.70
2022-07-26T23:14:07.689Z,27.56
2022-07-26T23:16:34.959Z,27.49
2022-07-26T23:19:06.395Z,27.50
2022-07-26T23:21:41.783Z,27.54
2022-07-26T23:24:08.976Z,27.46
2022-07-26T23:26:36.688Z,27.34
2022-07-26T23:29:06.782Z,27.37
2022-07-26T23:31:34.667Z,27.17
2022-07-26T23:34:04.387Z,27.24
2022-07-26T23:36:33.078Z,27.33
2022-07-26T23:41:45.097Z,27.21
2022-07-26T23:46:53.403Z,27.27
